Time;durP1;ratioP1;P1;durP2;ratioP2;P2;SDS_P1;SDS_P2;PMS_P1;PMS_P2;Temp;Humidity;BMP_temperature;BMP_pressure;BME280_temperature;BME280_humidity;BME280_pressure;Samples;Min_cycle;Max_cycle;Signal;HPM_P1;HPM_P2
2022/05/19 00:03:32;;;;;;;7.03;3.50;;;26.40;76.90;;;;;;6336114;22;20214;-91
2022/05/19 00:06:21;;;;;;;7.23;4.00;;;26.50;76.40;;;;;;6336420;22;20153;-91
2022/05/19 00:09:31;;;;;;;5.90;3.40;;;26.50;76.30;;;;;;6336500;22;20113;-92
2022/05/19 00:12:39;;;;;;;4.00;3.03;;;26.40;76.50;;;;;;6334840;22;20151;-91
2022/05/19 00:16:14;;;;;;;6.80;3.40;;;26.40;77.00;;;;;;6334408;22;20165;-90
2022/05/19 00:18:45;;;;;;;9.80;3.30;;;26.20;77.30;;;;;;6330960;22;20201;-91
2022/05/19 00:21:31;;;;;;;5.87;3.20;;;26.20;77.50;;;;;;6335182;22;20186;-91
2022/05/19 00:24:36;;;;;;;8.43;2.97;;;26.20;77.70;;;;;;6331114;22;20141;-91
2022/05/19 00:27:26;;;;;;;4.97;3.50;;;26.20;77.20;;;;;;6336478;22;20194;-91
2022/05/19 00:30:41;;;;;;;7.57;3.23;;;26.20;77.60;;;;;;6336281;22;20141;-91
2022/05/19 00:36:36;;;;;;;4.23;3.10;;;26.00;78.30;;;;;;6274895;22;20211;-91
2022/05/19 00:39:48;;;;;;;5.07;3.00;;;26.00;78.60;;;;;;6274876;22;20169;-90
2022/05/19 00:42:44;;;;;;;6.50;3.70;;;26.00;78.80;;;;;;6271664;22;20219;-91
2022/05/19 00:46:03;;;;;;;5.70;3.47;;;26.00;78.80;;;;;;6276266;22;20159;-91
2022/05/19 00:49:18;;;;;;;8.33;3.63;;;26.00;78.80;;;;;;6275977;22;20139;-91
2022/05/19 00:52:32;;;;;;;7.30;3.30;;;26.10;78.60;;;;;;6276747;22;20176;-90
2022/05/19 00:55:48;;;;;;;6.27;3.90;;;26.00;79.30;;;;;;6276153;22;20143;-93
2022/05/19 00:59:19;;;;;;;7.53;3.83;;;25.90;79.50;;;;;;6276011;22;20149;-91
2022/05/19 01:02:43;;;;;;;8.53;4.00;;;25.90;79.90;;;;;;6276209;22;20147;-91
2022/05/19 01:06:24;;;;;;;7.77;3.70;;;25.90;80.30;;;;;;6275229;22;20218;-91
2022/05/19 01:09:52;;;;;;;7.87;3.80;;;25.90;80.70;;;;;;6287283;22;20163;-90
2022/05/19 01:13:06;;;;;;;6.70;3.47;;;26.00;80.50;;;;;;6275285;22;20199;-90
2022/05/19 01:16:34;;;;;;;7.10;4.20;;;26.00;80.50;;;;;;6287138;22;20143;-91
2022/05/19 01:19:58;;;;;;;7.23;4.40;;;25.80;80.90;;;;;;6274936;22;20135;-91
2022/05/19 01:23:18;;;;;;;6.53;4.00;;;25.70;81.30;;;;;;6275266;22;20139;-91
2022/05/19 01:26:04;;;;;;;6.83;3.70;;;25.70;81.40;;;;;;6275541;22;20143;-91
2022/05/19 01:28:43;;;;;;;7.07;4.03;;;25.60;82.10;;;;;;6275133;22;20150;-90
2022/05/19 01:31:57;;;;;;;5.53;3.40;;;25.60;81.80;;;;;;6274804;22;20376;-91
2022/05/19 01:34:55;;;;;;;6.40;3.70;;;25.60;81.90;;;;;;6274644;22;20159;-90
2022/05/19 01:38:27;;;;;;;10.63;3.80;;;25.60;82.30;;;;;;6275793;22;20131;-90
2022/05/19 01:41:38;;;;;;;4.30;3.87;;;25.60;82.20;;;;;;6275210;22;20232;-91
2022/05/19 01:44:52;;;;;;;5.40;3.57;;;25.60;82.40;;;;;;6275539;22;20170;-90
2022/05/19 01:47:23;;;;;;;5.60;3.50;;;25.70;81.40;;;;;;6275009;22;20136;-90
2022/05/19 01:50:16;;;;;;;6.40;3.73;;;25.70;81.80;;;;;;6275122;22;20155;-91
2022/05/19 01:53:07;;;;;;;6.33;3.23;;;25.60;81.10;;;;;;6274699;22;20146;-90
2022/05/19 01:56:24;;;;;;;5.57;3.83;;;25.60;81.20;;;;;;6274813;22;20211;-90
2022/05/19 01:59:58;;;;;;;6.20;3.27;;;25.60;81.10;;;;;;6275121;22;20139;-90
2022/05/19 02:03:07;;;;;;;6.13;3.53;;;25.60;81.10;;;;;;6274599;22;20151;-90
2022/05/19 02:06:36;;;;;;;15.80;5.23;;;25.60;81.10;;;;;;6274971;22;20147;-91
2022/05/19 02:09:25;;;;;;;10.07;3.70;;;24.80;84.40;;;;;;6274738;22;20135;-90
2022/05/19 02:12:53;;;;;;;9.50;4.33;;;24.60;86.80;;;;;;6264547;22;20144;-90
2022/05/19 02:16:01;;;;;;;12.73;4.47;;;24.40;88.80;;;;;;6273949;22;20158;-90
2022/05/19 02:18:52;;;;;;;13.70;4.50;;;24.10;90.10;;;;;;6300189;22;20143;-91
2022/05/19 02:22:00;;;;;;;8.27;4.83;;;24.10;90.60;;;;;;6274182;22;20215;-90
2022/05/19 02:25:21;;;;;;;9.43;5.77;;;24.10;91.40;;;;;;6275288;22;20123;-90
2022/05/19 02:28:21;;;;;;;9.23;5.53;;;24.10;92.00;;;;;;6274513;22;20143;-90
2022/05/19 02:31:37;;;;;;;12.73;5.63;;;24.40;92.00;;;;;;6274949;22;20159;-90
2022/05/19 02:34:38;;;;;;;12.80;5.30;;;24.50;91.70;;;;;;6274431;22;20154;-90
2022/05/19 02:37:10;;;;;;;12.07;5.17;;;24.50;92.00;;;;;;6273424;22;20164;-91
2022/05/19 02:39:55;;;;;;;9.40;5.23;;;24.50;92.10;;;;;;6274411;22;20159;-90
2022/05/19 02:43:00;;;;;;;16.60;7.10;;;24.40;93.10;;;;;;6274938;22;20139;-88
2022/05/19 02:46:32;;;;;;;10.77;5.87;;;24.30;98.70;;;;;;6274641;22;20155;-91
2022/05/19 02:49:01;;;;;;;11.50;7.10;;;23.80;99.90;;;;;;6250526;22;20159;-93
2022/05/19 02:51:30;;;;;;;14.20;7.73;;;22.70;99.90;;;;;;6245560;23;20151;-94
2022/05/19 10:51:28;;;;;;;97.67;6.97;;;18.70;99.90;;;;;;6308506;22;20196;-91
2022/05/19 10:54:01;;;;;;;19.10;4.60;;;18.60;99.90;;;;;;6271840;22;20171;-91
2022/05/19 10:56:44;;;;;;;11.73;3.60;;;19.00;99.90;;;;;;6281836;22;20497;-91
2022/05/19 10:59:37;;;;;;;12.17;4.87;;;18.80;99.90;;;;;;6281827;22;20592;-90
2022/05/19 11:02:30;;;;;;;10.77;4.60;;;18.70;99.90;;;;;;6282341;22;20175;-92
2022/05/19 11:05:39;;;;;;;11.43;6.00;;;19.10;99.90;;;;;;6281637;22;20175;-91
2022/05/19 11:08:33;;;;;;;13.17;6.73;;;18.90;99.90;;;;;;6281402;22;20154;-90
2022/05/19 11:11:43;;;;;;;16.40;7.87;;;18.60;99.90;;;;;;6281204;22;20153;-92
2022/05/19 11:14:23;;;;;;;18.53;8.37;;;19.00;99.90;;;;;;6262095;22;20601;-91
2022/05/19 11:17:42;;;;;;;13.60;8.83;;;19.40;99.90;;;;;;6280488;22;20188;-91
2022/05/19 11:20:36;;;;;;;17.73;11.83;;;19.70;99.90;;;;;;6281046;22;20193;-92
2022/05/19 11:23:50;;;;;;;;;;;;;;;;;;;;;
2022/05/19 11:30:31;;;;;;;;;;;;;;;;;;;;;
2022/05/19 12:34:00;;;;;;;26.97;17.00;;;22.70;99.90;;;;;;6308073;22;20172;-92
2022/05/19 12:36:45;;;;;;;18.70;13.40;;;22.40;99.90;;;;;;6307909;22;20158;-91
2022/05/19 12:39:17;;;;;;;18.00;14.17;;;22.40;99.90;;;;;;6308363;22;20169;-91
2022/05/19 12:41:49;;;;;;;17.17;14.60;;;22.50;99.90;;;;;;6309592;22;20177;-91
2022/05/19 12:44:34;;;;;;;16.57;13.30;;;22.70;99.90;;;;;;6307846;22;20165;-91
2022/05/19 12:47:10;;;;;;;12.90;10.70;;;23.30;99.90;;;;;;6308153;22;20539;-92
2022/05/19 12:49:36;;;;;;;9.50;7.70;;;24.60;99.90;;;;;;6308418;22;20165;-91
2022/05/19 12:52:19;;;;;;;7.73;5.53;;;26.10;99.90;;;;;;6309732;22;20184;-91
2022/05/19 12:55:22;;;;;;;6.20;5.00;;;27.20;99.90;;;;;;6307731;22;20169;-92
2022/05/19 12:57:48;;;;;;;4.25;3.42;;;28.70;99.90;;;;;;6270638;22;20173;-92
2022/05/19 13:00:20;;;;;;;4.88;4.10;;;29.50;99.90;;;;;;6308072;22;20501;-92
2022/05/19 13:03:06;;;;;;;6.13;3.75;;;30.20;99.90;;;;;;6308359;22;20162;-92
2022/05/19 13:05:52;;;;;;;7.88;4.32;;;30.60;99.90;;;;;;6307987;22;20200;-92
2022/05/19 13:08:39;;;;;;;6.50;4.03;;;30.50;99.90;;;;;;6307845;22;20165;-94
2022/05/19 13:11:16;;;;;;;4.47;3.42;;;31.20;99.90;;;;;;6307831;22;20169;-93
2022/05/19 13:14:13;;;;;;;7.68;3.85;;;32.00;99.90;;;;;;6307957;22;20161;-92
2022/05/19 13:16:43;;;;;;;7.15;3.60;;;32.80;99.90;;;;;;6308111;22;20181;-92
2022/05/19 13:19:22;;;;;;;5.97;3.70;;;32.80;99.90;;;;;;6308150;22;20162;-93
2022/05/19 13:21:50;;;;;;;6.45;3.25;;;33.30;99.90;;;;;;6307373;22;20689;-91
2022/05/19 13:24:17;;;;;;;5.40;2.97;;;33.70;99.70;;;;;;6308096;22;20169;-93
2022/05/19 13:26:45;;;;;;;4.18;3.30;;;34.20;95.50;;;;;;6309169;22;20568;-95
2022/05/19 13:32:03;;;;;;;8.32;2.95;;;35.70;93.60;;;;;;6309347;22;20200;-95
2022/05/19 13:34:47;;;;;;;3.08;2.10;;;35.80;87.00;;;;;;6308127;22;20222;-96
2022/05/19 13:37:27;;;;;;;3.83;2.60;;;34.50;90.80;;;;;;6307542;22;20595;-96
2022/05/19 13:40:19;;;;;;;5.50;2.65;;;33.50;90.30;;;;;;6307962;22;20185;-96
2022/05/19 13:43:06;;;;;;;3.95;2.17;;;32.60;93.60;;;;;;6307896;22;20628;-96
2022/05/19 13:45:43;;;;;;;4.30;2.30;;;31.00;92.20;;;;;;6307836;22;20204;-94
2022/05/19 13:48:31;;;;;;;3.50;2.07;;;29.50;93.90;;;;;;6307617;22;20196;-95
2022/05/19 14:24:49;;;;;;;3.60;3.30;;;25.40;99.90;;;;;;6320152;22;20207;-91
2022/05/19 14:27:19;;;;;;;6.07;3.27;;;25.60;99.90;;;;;;6307138;22;20167;-91
2022/05/19 14:29:55;;;;;;;3.70;2.43;;;26.70;99.90;;;;;;6287279;22;20218;-92
2022/05/19 14:32:42;;;;;;;4.60;3.07;;;27.30;98.70;;;;;;6305937;22;20161;-94
2022/05/19 14:35:23;;;;;;;4.03;3.00;;;28.20;97.30;;;;;;6306985;22;20172;-93
2022/05/19 14:38:13;;;;;;;3.90;2.90;;;28.40;96.90;;;;;;6306539;22;20244;-93
2022/05/19 14:44:08;;;;;;;4.10;1.77;;;27.60;97.90;;;;;;6307955;22;20311;-92
2022/05/19 14:47:15;;;;;;;2.50;1.87;;;28.10;96.30;;;;;;6298915;22;20222;-93
2022/05/19 14:50:10;;;;;;;3.90;1.97;;;28.00;96.00;;;;;;6277122;22;20176;-92
2022/05/19 14:56:14;;;;;;;2.17;1.70;;;27.60;97.00;;;;;;6307928;22;20169;-92
2022/05/19 14:59:09;;;;;;;1.47;1.23;;;27.40;97.70;;;;;;6305691;22;20250;-92
2022/05/19 15:01:35;;;;;;;3.83;1.70;;;28.60;95.80;;;;;;6288626;22;20623;-92
2022/05/19 15:04:01;;;;;;;1.77;1.30;;;29.10;94.20;;;;;;6306374;22;20241;-93
2022/05/19 15:06:30;;;;;;;2.90;1.13;;;29.90;92.60;;;;;;6306724;22;20173;-93
2022/05/19 15:08:56;;;;;;;2.90;1.60;;;30.80;91.20;;;;;;6307138;22;20540;-92
2022/05/19 15:11:32;;;;;;;2.92;1.02;;;31.40;90.50;;;;;;6306912;22;20587;-93
2022/05/19 15:14:07;;;;;;;2.47;1.30;;;31.50;89.20;;;;;;6306277;22;20201;-93
2022/05/19 15:17:10;;;;;;;1.87;1.10;;;31.50;88.90;;;;;;6304017;22;20173;-94
2022/05/19 16:48:47;;;;;;;3.43;2.47;;;27.50;92.10;;;;;;6201837;23;20234;-90
2022/05/19 16:51:44;;;;;;;7.00;4.53;;;26.90;93.00;;;;;;6190468;23;20175;-91
2022/05/19 17:00:15;;;;;;;9.57;8.23;;;26.50;95.80;;;;;;6308290;22;20184;-91
2022/05/19 17:03:13;;;;;;;;;;;;;;;;;;;;;
2022/05/19 17:06:02;;;;;;;10.47;9.47;;;27.20;95.10;;;;;;6317431;22;20176;-91
2022/05/19 17:08:48;;;;;;;13.10;9.07;;;27.30;94.30;;;;;;6310739;22;20188;-91
2022/05/19 17:11:30;;;;;;;;;;;;;;;;;;;;;
2022/05/19 17:14:28;;;;;;;;;;;;;;;;;;;;;
2022/05/19 17:18:08;;;;;;;;;;;;;;;;;;;;;
2022/05/19 17:21:40;;;;;;;;;;;;;;;;;;;;;
2022/05/19 17:28:02;;;;;;;10.40;8.57;;;26.90;93.50;;;;;;6160922;23;20164;-91
2022/05/19 17:31:03;;;;;;;;;;;;;;;;;;;;;
2022/05/19 17:34:16;;;;;;;;;;;;;;;;;;;;;
2022/05/19 17:37:12;;;;;;;11.53;8.50;;;26.70;93.30;;;;;;6262597;22;20201;-91
2022/05/19 17:40:11;;;;;;;8.23;7.40;;;26.70;92.70;;;;;;6289183;22;20170;-91
2022/05/19 17:42:48;;;;;;;;;;;;;;;;;;;;;
2022/05/19 17:48:51;;;;;;;9.33;6.77;;;26.80;92.00;;;;;;6281471;22;20175;-89
2022/05/19 17:51:18;;;;;;;9.27;6.30;;;26.80;92.10;;;;;;6308455;22;20157;-86
2022/05/19 18:09:06;;;;;;;6.17;5.57;;;27.10;90.80;;;;;;6040967;23;20219;-91
2022/05/19 18:11:31;;;;;;;8.53;6.40;;;26.30;90.70;;;;;;6038006;23;20532;-93
2022/05/19 18:13:57;;;;;;;7.97;5.83;;;25.90;91.20;;;;;;6027463;23;20184;-94
2022/05/19 18:19:08;;;;;;;6.90;5.53;;;25.90;91.60;;;;;;6278783;22;20173;-94
2022/05/19 18:21:34;;;;;;;7.00;5.73;;;26.00;91.40;;;;;;6305327;22;20186;-95
2022/05/19 18:24:00;;;;;;;7.10;5.93;;;26.00;91.30;;;;;;6303604;22;20167;-94
2022/05/19 18:26:27;;;;;;;8.27;5.90;;;26.00;91.20;;;;;;6302165;22;20158;-94
2022/05/19 18:28:53;;;;;;;10.43;5.90;;;25.90;91.30;;;;;;6303249;22;20169;-95
2022/05/19 18:31:20;;;;;;;11.27;6.90;;;25.80;91.40;;;;;;6302937;22;20166;-95
2022/05/19 18:33:46;;;;;;;10.83;5.90;;;25.70;91.10;;;;;;6303405;22;20162;-94
2022/05/19 18:36:15;;;;;;;9.03;6.37;;;25.60;91.30;;;;;;6302572;22;20167;-94
2022/05/19 18:38:42;;;;;;;9.23;6.40;;;25.40;91.30;;;;;;6304861;22;20213;-95
2022/05/19 18:46:37;;;;;;;9.70;6.23;;;25.10;92.20;;;;;;6254095;22;20247;-95
2022/05/19 18:49:03;;;;;;;10.70;7.10;;;25.20;92.00;;;;;;6302957;22;20567;-93
2022/05/19 18:51:30;;;;;;;9.13;6.77;;;25.10;91.70;;;;;;6304017;22;20155;-95
2022/05/19 18:53:56;;;;;;;12.10;7.70;;;25.00;91.80;;;;;;6303588;22;20166;-95
2022/05/19 18:56:44;;;;;;;8.53;6.90;;;24.80;91.90;;;;;;6311607;22;20178;-93
2022/05/19 18:59:16;;;;;;;11.10;7.27;;;24.60;92.10;;;;;;6305307;22;20154;-90
2022/05/19 19:02:41;;;;;;;9.30;6.53;;;24.50;91.60;;;;;;6306022;22;20197;-91
2022/05/19 19:05:33;;;;;;;11.40;6.90;;;24.40;92.00;;;;;;6322084;22;20185;-91
2022/05/19 19:08:45;;;;;;;10.57;7.20;;;24.50;91.50;;;;;;6324716;22;20170;-90
2022/05/19 19:12:13;;;;;;;12.07;7.73;;;24.40;91.30;;;;;;6337416;22;20146;-89
2022/05/19 19:14:48;;;;;;;11.80;7.83;;;24.30;91.20;;;;;;6337184;22;20213;-90
2022/05/19 19:17:57;;;;;;;9.73;7.60;;;24.10;91.60;;;;;;6336581;22;20180;-91
2022/05/19 19:21:07;;;;;;;12.70;6.17;;;24.10;92.00;;;;;;6333769;22;20169;-90
2022/05/19 19:24:21;;;;;;;10.07;6.73;;;23.90;92.80;;;;;;6319981;22;20200;-93
2022/05/19 19:27:37;;;;;;;8.80;6.60;;;23.60;93.40;;;;;;6336606;22;20142;-92
2022/05/19 19:30:46;;;;;;;9.83;6.33;;;23.60;93.70;;;;;;6336305;22;20157;-91
2022/05/19 19:33:33;;;;;;;13.20;7.43;;;23.60;93.90;;;;;;6331151;22;20170;-92
2022/05/19 19:36:13;;;;;;;9.90;7.93;;;23.50;94.10;;;;;;6333250;22;20162;-96
2022/05/19 19:38:51;;;;;;;11.50;7.33;;;23.50;94.50;;;;;;6329122;22;20163;-94
2022/05/19 19:41:17;;;;;;;10.37;7.03;;;23.60;93.90;;;;;;6332408;22;20201;-95
2022/05/19 19:43:46;;;;;;;13.20;7.80;;;23.80;93.70;;;;;;6334588;22;20158;-92
2022/05/19 19:46:16;;;;;;;12.97;8.17;;;23.60;94.00;;;;;;6334253;22;20224;-94
2022/05/19 19:48:42;;;;;;;10.10;7.73;;;23.40;94.50;;;;;;6282374;22;20174;-92
2022/05/19 19:53:53;;;;;;;14.77;8.20;;;23.40;94.60;;;;;;6329829;22;20173;-94
2022/05/19 19:56:19;;;;;;;17.47;8.47;;;23.30;94.90;;;;;;6329872;22;20164;-92
2022/05/19 19:58:45;;;;;;;11.00;7.90;;;23.10;95.20;;;;;;6326973;22;20136;-96
2022/05/19 20:01:38;;;;;;;11.87;8.20;;;23.00;95.40;;;;;;6334905;22;20201;-91
2022/05/19 20:04:11;;;;;;;13.80;8.17;;;23.00;95.90;;;;;;6332373;22;20210;-92
2022/05/19 20:07:00;;;;;;;10.93;8.50;;;22.80;96.00;;;;;;6335263;22;20176;-92
2022/05/19 20:09:31;;;;;;;14.07;8.00;;;22.80;96.40;;;;;;6332124;22;20142;-91
2022/05/19 20:12:02;;;;;;;11.37;7.67;;;22.60;96.70;;;;;;6305691;22;20154;-89
2022/05/19 20:14:28;;;;;;;12.43;8.47;;;22.60;96.90;;;;;;6304357;22;20157;-95
2022/05/19 20:16:53;;;;;;;12.63;8.13;;;22.50;97.00;;;;;;6304278;22;20170;-95
2022/05/19 20:19:19;;;;;;;10.63;8.77;;;22.50;97.10;;;;;;6309219;22;20169;-95
2022/05/19 20:21:45;;;;;;;13.27;8.97;;;22.40;97.40;;;;;;6309933;22;20529;-91
2022/05/19 20:24:12;;;;;;;12.53;7.53;;;22.20;97.70;;;;;;6309298;22;20189;-93
2022/05/19 20:26:38;;;;;;;10.60;7.50;;;22.10;98.30;;;;;;6309777;22;20291;-94
2022/05/19 20:29:07;;;;;;;14.50;8.20;;;22.10;98.60;;;;;;6313552;22;20216;-90
2022/05/19 20:31:33;;;;;;;10.97;8.17;;;22.10;98.70;;;;;;6310911;22;20473;-95
2022/05/19 20:34:00;;;;;;;11.63;7.93;;;22.10;98.80;;;;;;6319095;22;20203;-95
2022/05/19 20:36:47;;;;;;;12.47;7.93;;;22.10;98.60;;;;;;6333336;22;20221;-94
2022/05/19 20:39:22;;;;;;;12.20;7.77;;;22.20;98.50;;;;;;6305505;22;20142;-93
2022/05/19 20:41:51;;;;;;;14.03;8.93;;;22.10;98.30;;;;;;6287680;22;20192;-90
2022/05/19 20:44:43;;;;;;;15.70;9.17;;;22.10;98.30;;;;;;6335708;22;20195;-88
2022/05/19 20:47:33;;;;;;;12.37;8.77;;;22.00;98.30;;;;;;6332474;22;20203;-91
2022/05/19 20:50:28;;;;;;;13.00;8.60;;;21.90;98.70;;;;;;6335391;22;20157;-90
2022/05/19 20:53:10;;;;;;;10.23;8.23;;;21.70;99.40;;;;;;6304467;22;20174;-87
2022/05/19 20:55:36;;;;;;;15.10;8.90;;;21.50;99.90;;;;;;6305830;22;20536;-88
2022/05/19 20:58:02;;;;;;;15.17;8.93;;;21.30;99.90;;;;;;6306786;22;20432;-87
2022/05/19 21:00:27;;;;;;;13.63;8.37;;;21.20;99.90;;;;;;6307245;22;20185;-88
2022/05/19 21:02:53;;;;;;;13.47;8.30;;;21.20;99.90;;;;;;6307696;22;20192;-88
2022/05/19 21:05:19;;;;;;;11.10;7.83;;;21.10;99.90;;;;;;6308021;22;20598;-87
2022/05/19 21:07:46;;;;;;;14.47;8.93;;;21.10;99.90;;;;;;6307646;22;20603;-87
2022/05/19 21:10:16;;;;;;;11.60;8.10;;;21.10;99.90;;;;;;6307944;22;20177;-88
2022/05/19 21:12:41;;;;;;;11.27;8.67;;;21.20;99.90;;;;;;6307939;22;20380;-87
2022/05/19 21:15:08;;;;;;;11.97;9.43;;;21.00;99.90;;;;;;6306574;22;20180;-83
2022/05/19 21:17:34;;;;;;;12.17;9.27;;;21.00;99.90;;;;;;6301049;22;20219;-86
2022/05/19 21:19:59;;;;;;;14.37;9.37;;;21.10;99.90;;;;;;6307125;22;20161;-85
2022/05/19 21:22:25;;;;;;;14.83;9.67;;;21.00;99.90;;;;;;6307397;22;20180;-85
2022/05/19 21:27:35;;;;;;;14.43;9.37;;;20.70;99.90;;;;;;6305652;22;20196;-84
2022/05/19 21:30:04;;;;;;;15.83;10.33;;;20.70;99.90;;;;;;6307652;22;20158;-85
2022/05/19 21:32:29;;;;;;;14.13;10.30;;;20.60;99.90;;;;;;6305478;22;20154;-85
2022/05/19 21:34:55;;;;;;;13.30;10.03;;;20.40;99.90;;;;;;6307395;22;20169;-85
2022/05/19 21:37:21;;;;;;;14.77;10.63;;;20.50;99.90;;;;;;6307264;22;20461;-85
2022/05/19 21:39:50;;;;;;;14.73;10.23;;;20.60;99.90;;;;;;6306132;22;20184;-84
2022/05/19 21:42:18;;;;;;;15.30;10.23;;;20.40;99.90;;;;;;6304167;22;20146;-84
2022/05/19 21:44:44;;;;;;;13.23;10.33;;;20.30;99.90;;;;;;6257165;22;20162;-85
2022/05/19 21:47:10;;;;;;;15.03;10.57;;;20.30;99.90;;;;;;6307415;22;20169;-84
2022/05/19 21:49:36;;;;;;;19.17;11.03;;;20.10;99.90;;;;;;6307158;22;20173;-85
2022/05/19 21:57:39;;;;;;;15.07;10.87;;;20.10;99.90;;;;;;6304839;22;20172;-84
2022/05/19 22:00:30;;;;;;;15.00;10.67;;;20.00;99.90;;;;;;6306547;22;20275;-85
2022/05/19 22:03:02;;;;;;;16.37;11.53;;;20.10;99.90;;;;;;6262559;22;20223;-84
2022/05/19 22:05:30;;;;;;;14.23;11.20;;;20.00;99.90;;;;;;6307025;22;20161;-85
2022/05/19 22:07:57;;;;;;;13.00;10.80;;;20.00;99.90;;;;;;6307212;22;20610;-85
2022/05/19 22:10:24;;;;;;;14.83;11.10;;;19.90;99.90;;;;;;6306547;22;20165;-85
2022/05/19 22:12:50;;;;;;;13.03;10.80;;;19.90;99.90;;;;;;6307267;22;20170;-85
2022/05/19 22:15:16;;;;;;;18.33;11.77;;;19.80;99.90;;;;;;6307404;22;20572;-84
2022/05/19 22:17:42;;;;;;;17.53;11.67;;;19.80;99.90;;;;;;6307125;22;20172;-84
2022/05/19 22:20:10;;;;;;;14.77;10.93;;;19.80;99.90;;;;;;6306632;22;20185;-84
2022/05/19 22:22:36;;;;;;;16.63;10.93;;;19.70;99.90;;;;;;6306314;22;20170;-84
2022/05/19 22:25:03;;;;;;;16.17;11.40;;;19.80;99.90;;;;;;6299649;22;20575;-85
2022/05/19 22:27:29;;;;;;;15.13;11.63;;;19.80;99.90;;;;;;6256703;22;20547;-85
2022/05/19 22:29:54;;;;;;;16.40;11.67;;;20.00;99.90;;;;;;6307401;22;20161;-85
2022/05/19 22:32:20;;;;;;;14.67;11.57;;;20.20;99.90;;;;;;6306969;22;20471;-85
2022/05/19 22:34:46;;;;;;;16.47;11.00;;;19.90;99.90;;;;;;6306786;22;20168;-84
2022/05/19 22:37:14;;;;;;;16.33;11.67;;;19.70;99.90;;;;;;6307091;22;20183;-85
2022/05/19 22:39:40;;;;;;;15.23;11.73;;;19.70;99.90;;;;;;6306963;22;20161;-84
2022/05/19 22:42:08;;;;;;;14.73;11.33;;;19.60;99.90;;;;;;6307089;22;20280;-85
2022/05/19 22:44:34;;;;;;;18.40;12.03;;;19.50;99.90;;;;;;6306848;22;20165;-85
2022/05/19 22:49:44;;;;;;;19.10;13.40;;;19.30;99.90;;;;;;6305702;22;20173;-85
2022/05/19 22:52:11;;;;;;;19.70;13.83;;;19.40;99.90;;;;;;6302775;22;20228;-85
2022/05/19 22:54:37;;;;;;;19.27;13.20;;;19.50;99.90;;;;;;6306683;22;20602;-84
2022/05/19 22:57:04;;;;;;;17.30;13.27;;;19.40;99.90;;;;;;6306983;22;20208;-84
2022/05/19 22:59:30;;;;;;;21.80;14.30;;;19.50;99.90;;;;;;6307138;22;20181;-84
2022/05/19 23:01:55;;;;;;;17.80;14.10;;;19.50;99.90;;;;;;6306462;22;20260;-85
2022/05/19 23:04:21;;;;;;;20.50;14.90;;;19.30;99.90;;;;;;6306757;22;20172;-85
2022/05/19 23:06:46;;;;;;;18.07;14.80;;;19.70;99.90;;;;;;6306644;22;20173;-85
2022/05/19 23:09:12;;;;;;;17.77;14.70;;;19.60;99.90;;;;;;6304981;22;20153;-84
2022/05/19 23:11:39;;;;;;;20.87;15.43;;;19.40;99.90;;;;;;6306601;22;20174;-84
2022/05/19 23:14:04;;;;;;;18.83;16.63;;;19.20;99.90;;;;;;6306816;22;20252;-84
2022/05/19 23:16:30;;;;;;;21.10;15.07;;;19.20;99.90;;;;;;6306269;22;20212;-85
2022/05/19 23:18:56;;;;;;;21.17;16.83;;;19.00;99.90;;;;;;6304836;22;20227;-85
2022/05/19 23:21:21;;;;;;;21.07;17.03;;;19.00;99.90;;;;;;6300386;22;20240;-85
2022/05/19 23:23:48;;;;;;;24.10;18.23;;;18.90;99.90;;;;;;6306351;22;20166;-85
2022/05/19 23:26:14;;;;;;;24.57;17.10;;;19.00;99.90;;;;;;6306711;22;20162;-84
2022/05/19 23:28:39;;;;;;;27.30;21.17;;;19.10;99.90;;;;;;6306606;22;20194;-83
2022/05/19 23:31:09;;;;;;;25.60;20.77;;;19.30;99.90;;;;;;6306371;22;20165;-84
2022/05/19 23:33:36;;;;;;;27.80;20.93;;;19.40;99.90;;;;;;6306625;22;20219;-85
2022/05/19 23:36:04;;;;;;;33.70;21.93;;;19.40;99.90;;;;;;6306510;22;20539;-84
2022/05/19 23:38:34;;;;;;;28.97;20.70;;;19.50;99.90;;;;;;6304811;22;20153;-84
2022/05/19 23:41:03;;;;;;;30.27;21.60;;;19.50;99.90;;;;;;6306313;22;20264;-85
2022/05/19 23:43:29;;;;;;;28.03;21.00;;;19.70;99.90;;;;;;6306639;22;20231;-85
2022/05/19 23:45:56;;;;;;;35.53;24.13;;;19.70;99.90;;;;;;6304488;22;20168;-84
2022/05/19 23:48:24;;;;;;;28.97;22.37;;;19.60;99.90;;;;;;6300209;22;20152;-85
2022/05/19 23:50:50;;;;;;;31.57;22.47;;;19.60;99.90;;;;;;6304013;22;20161;-84
2022/05/19 23:53:17;;;;;;;31.80;22.23;;;19.90;99.90;;;;;;6306623;22;20606;-84
2022/05/19 23:55:43;;;;;;;27.87;21.40;;;19.80;99.90;;;;;;6305822;22;20252;-84
2022/05/19 23:58:09;;;;;;;26.97;21.17;;;19.90;99.90;;;;;;6306060;22;20169;-84
